createdAt,value
2018-05-19T00:00:33.019Z,17.77
2018-05-19T00:03:08.369Z,19.10
2018-05-19T00:05:43.024Z,15.60
2018-05-19T00:08:17.642Z,14.17
2018-05-19T00:10:52.232Z,20.07
2018-05-19T00:13:26.878Z,16.63
2018-05-19T00:16:01.416Z,21.37
2018-05-19T00:18:36.042Z,21.97
2018-05-19T00:21:10.667Z,27.63
2018-05-19T00:23:45.411Z,18.63
2018-05-19T00:26:20.720Z,19.40
2018-05-19T00:28:55.306Z,22.10
2018-05-19T00:31:29.962Z,15.07
2018-05-19T00:34:05.394Z,18.80
2018-05-19T00:36:40.039Z,14.23
2018-05-19T00:39:14.659Z,27.13
2018-05-19T00:41:49.332Z,21.73
2018-05-19T00:44:24.017Z,11.33
2018-05-19T00:46:58.702Z,16.67
2018-05-19T00:49:33.229Z,19.53
2018-05-19T00:52:07.945Z,16.03
2018-05-19T00:54:54.765Z,15.17
2018-05-19T00:57:29.489Z,23.80
2018-05-19T01:00:03.676Z,23.50
2018-05-19T01:02:38.347Z,17.20
2018-05-19T01:05:12.992Z,21.20
2018-05-19T01:07:47.683Z,15.63
2018-05-19T01:10:22.283Z,16.70
2018-05-19T01:12:57.018Z,18.53
2018-05-19T01:15:31.675Z,19.70
2018-05-19T01:18:06.701Z,26.23
2018-05-19T01:20:41.567Z,16.43
2018-05-19T01:23:16.257Z,18.37
2018-05-19T01:25:50.840Z,17.80
2018-05-19T01:28:26.160Z,18.47
2018-05-19T01:31:00.730Z,15.23
2018-05-19T01:33:35.439Z,23.80
2018-05-19T01:36:10.008Z,21.60
2018-05-19T01:38:44.767Z,18.80
2018-05-19T01:41:19.349Z,17.50
2018-05-19T01:43:57.864Z,25.20
2018-05-19T01:46:32.523Z,19.20
2018-05-19T01:49:07.189Z,33.97
2018-05-19T01:51:41.764Z,16.83
2018-05-19T01:54:16.493Z,15.13
2018-05-19T01:56:51.134Z,25.17
2018-05-19T01:59:25.734Z,21.67
2018-05-19T02:02:00.689Z,25.60
2018-05-19T02:04:36.226Z,17.60
2018-05-19T02:07:10.840Z,27.43
2018-05-19T02:09:45.459Z,25.00
2018-05-19T02:12:20.061Z,19.30
2018-05-19T02:14:54.683Z,21.23
2018-05-19T02:17:30.062Z,21.93
2018-05-19T02:20:04.688Z,23.67
2018-05-19T02:22:39.214Z,21.70
2018-05-19T02:25:13.851Z,25.17
2018-05-19T02:27:48.429Z,18.53
2018-05-19T02:30:23.070Z,26.47
2018-05-19T02:32:57.924Z,27.13
2018-05-19T02:35:32.689Z,28.93
2018-05-19T02:38:07.265Z,21.63
2018-05-19T02:40:42.017Z,24.90
2018-05-19T02:43:17.431Z,22.80
2018-05-19T02:45:52.219Z,23.10
2018-05-19T02:48:26.800Z,24.17
2018-05-19T02:51:01.401Z,25.47
2018-05-19T02:53:36.250Z,23.43
2018-05-19T02:56:11.079Z,21.93
2018-05-19T02:58:46.519Z,23.13
2018-05-19T03:01:21.831Z,18.77
2018-05-19T03:03:56.440Z,27.80
2018-05-19T03:06:30.991Z,28.50
2018-05-19T03:09:05.115Z,22.37
2018-05-19T03:11:40.446Z,23.13
2018-05-19T03:14:15.091Z,22.40
2018-05-19T03:16:49.663Z,21.70
2018-05-19T03:19:24.412Z,26.20
2018-05-19T03:21:59.319Z,21.03
2018-05-19T03:24:34.703Z,20.63
2018-05-19T03:27:09.304Z,31.40
2018-05-19T03:29:43.927Z,19.93
2018-05-19T03:32:18.609Z,26.23
2018-05-19T03:34:53.434Z,22.00
2018-05-19T03:37:28.082Z,27.30
2018-05-19T03:40:02.811Z,23.13
2018-05-19T03:42:37.743Z,24.27
2018-05-19T03:45:13.223Z,23.40
2018-05-19T03:47:48.664Z,23.60
2018-05-19T03:50:23.237Z,24.43
2018-05-19T03:52:57.869Z,23.87
2018-05-19T03:55:32.453Z,25.57
2018-05-19T03:58:18.354Z,23.93
2018-05-19T04:01:04.201Z,22.87
2018-05-19T04:03:38.995Z,22.43
2018-05-19T04:06:13.557Z,22.13
2018-05-19T04:08:48.181Z,23.30
2018-05-19T04:11:22.840Z,28.93
2018-05-19T04:13:57.598Z,22.20
2018-05-19T04:16:32.351Z,31.07
2018-05-19T04:19:07.152Z,23.57
2018-05-19T04:21:42.836Z,21.27
2018-05-19T04:24:18.396Z,28.93
2018-05-19T04:26:53.166Z,17.70
2018-05-19T04:29:28.472Z,22.00
2018-05-19T04:32:03.114Z,24.33
2018-05-19T04:34:37.890Z,23.90
2018-05-19T04:37:13.267Z,24.17
2018-05-19T04:39:48.785Z,25.10
2018-05-19T04:42:17.879Z,27.53
2018-05-19T04:44:52.524Z,20.70
2018-05-19T04:47:27.549Z,23.83
2018-05-19T04:50:02.364Z,23.00
2018-05-19T04:52:36.923Z,21.57
2018-05-19T04:55:11.848Z,24.63
2018-05-19T04:57:46.539Z,23.57
2018-05-19T05:00:21.049Z,22.50
2018-05-19T05:02:55.762Z,23.80
2018-05-19T05:05:33.252Z,30.37
2018-05-19T05:08:07.922Z,24.53
2018-05-19T05:10:42.461Z,22.43
2018-05-19T05:13:17.222Z,25.47
2018-05-19T05:15:51.928Z,36.53
2018-05-19T05:18:26.559Z,21.73
2018-05-19T05:21:01.208Z,31.50
2018-05-19T05:23:36.502Z,22.53
2018-05-19T05:26:11.235Z,31.33
2018-05-19T05:28:46.061Z,21.37
2018-05-19T05:31:21.635Z,26.20
2018-05-19T05:33:56.401Z,26.93
2018-05-19T05:36:31.944Z,26.83
2018-05-19T05:39:06.633Z,28.83
2018-05-19T05:41:42.056Z,23.00
2018-05-19T05:44:16.799Z,22.03
2018-05-19T05:46:51.617Z,33.10
2018-05-19T05:49:26.238Z,25.37
2018-05-19T05:52:00.911Z,24.73
2018-05-19T05:54:30.857Z,26.60
2018-05-19T05:57:05.500Z,25.90
2018-05-19T05:59:40.163Z,25.23
2018-05-19T06:02:14.992Z,27.90
2018-05-19T06:04:50.500Z,23.67
2018-05-19T06:07:26.029Z,27.93
2018-05-19T06:10:00.867Z,27.37
2018-05-19T06:12:35.542Z,22.70
2018-05-19T06:15:10.323Z,29.57
2018-05-19T06:17:45.016Z,30.03
2018-05-19T06:20:20.182Z,30.10
2018-05-19T06:22:54.849Z,28.33
2018-05-19T06:25:30.269Z,30.93
2018-05-19T06:28:04.865Z,26.80
2018-05-19T06:30:39.556Z,25.47
2018-05-19T06:33:14.253Z,27.00
2018-05-19T06:35:49.813Z,21.97
2018-05-19T06:38:24.389Z,22.93
2018-05-19T06:40:59.124Z,22.20
2018-05-19T06:43:33.726Z,26.50
2018-05-19T06:46:08.222Z,21.67
2018-05-19T06:48:42.931Z,21.20
2018-05-19T06:51:17.703Z,28.73
2018-05-19T06:53:52.446Z,25.30
2018-05-19T06:56:27.827Z,24.03
2018-05-19T06:58:56.912Z,26.40
2018-05-19T07:01:31.564Z,24.20
2018-05-19T07:04:11.276Z,36.63
2018-05-19T07:06:46.837Z,28.80
2018-05-19T07:09:21.445Z,33.53
2018-05-19T07:11:55.812Z,31.33
2018-05-19T07:14:30.393Z,30.30
2018-05-19T07:17:05.230Z,25.00
2018-05-19T07:19:40.861Z,31.87
2018-05-19T07:22:15.584Z,25.90
2018-05-19T07:24:50.338Z,27.40
2018-05-19T07:27:25.807Z,29.03
2018-05-19T07:30:00.862Z,29.67
2018-05-19T07:32:36.266Z,28.97
2018-05-19T07:35:10.893Z,27.37
2018-05-19T07:37:45.566Z,30.63
2018-05-19T07:40:20.204Z,26.53
2018-05-19T07:42:55.067Z,29.05
2018-05-19T07:45:30.523Z,24.03
2018-05-19T07:48:06.114Z,22.20
2018-05-19T07:50:40.839Z,30.80
2018-05-19T07:53:15.435Z,26.90
2018-05-19T07:55:50.468Z,23.90
2018-05-19T07:58:25.115Z,28.53
2018-05-19T08:01:00.110Z,29.70
2018-05-19T08:03:34.741Z,35.53
2018-05-19T08:06:10.192Z,29.20
2018-05-19T08:08:44.795Z,24.63
2018-05-19T08:11:20.260Z,30.23
2018-05-19T08:13:55.160Z,26.43
2018-05-19T08:16:29.921Z,30.07
2018-05-19T08:19:04.600Z,27.07
2018-05-19T08:21:39.142Z,28.83
2018-05-19T08:24:13.911Z,27.50
2018-05-19T08:26:48.562Z,27.40
2018-05-19T08:29:23.318Z,29.30
2018-05-19T08:31:57.855Z,28.37
2018-05-19T08:34:32.659Z,31.20
2018-05-19T08:37:07.447Z,30.57
2018-05-19T08:39:42.849Z,32.27
2018-05-19T08:42:19.201Z,28.73
2018-05-19T08:44:54.149Z,31.90
2018-05-19T08:47:28.863Z,33.30
2018-05-19T08:50:03.673Z,28.90
2018-05-19T08:52:38.411Z,35.27
2018-05-19T08:55:13.964Z,33.97
2018-05-19T08:57:48.680Z,45.40
2018-05-19T09:00:23.566Z,36.57
2018-05-19T09:02:58.311Z,33.43
2018-05-19T09:05:33.265Z,32.13
2018-05-19T09:08:09.047Z,30.73
2018-05-19T09:10:43.877Z,32.07
2018-05-19T09:13:18.803Z,30.60
2018-05-19T09:15:53.796Z,30.57
2018-05-19T09:18:28.548Z,27.83
2018-05-19T09:21:03.333Z,34.77
2018-05-19T09:23:37.961Z,25.57
2018-05-19T09:26:12.724Z,28.93
2018-05-19T09:28:47.512Z,22.47
2018-05-19T09:31:22.303Z,22.50
2018-05-19T09:33:57.191Z,25.30
2018-05-19T09:36:31.829Z,26.63
2018-05-19T09:39:05.826Z,23.37
2018-05-19T09:41:40.395Z,25.00
2018-05-19T09:44:15.829Z,25.07
2018-05-19T09:46:50.540Z,27.10
2018-05-19T09:49:25.567Z,38.40
2018-05-19T09:52:03.495Z,31.93
2018-05-19T09:54:37.916Z,27.67
2018-05-19T09:57:13.505Z,28.77
2018-05-19T09:59:48.287Z,25.93
2018-05-19T10:02:22.804Z,28.60
2018-05-19T10:04:57.517Z,31.20
2018-05-19T10:07:32.443Z,28.03
2018-05-19T10:10:06.425Z,26.87
2018-05-19T10:12:41.475Z,26.10
2018-05-19T10:15:16.311Z,29.77
2018-05-19T10:17:51.205Z,35.07
2018-05-19T10:20:25.787Z,33.87
2018-05-19T10:23:00.442Z,29.40
2018-05-19T10:25:36.075Z,30.13
2018-05-19T10:28:11.685Z,29.30
2018-05-19T10:30:46.456Z,31.90
2018-05-19T10:33:21.016Z,28.83
2018-05-19T10:35:55.770Z,29.07
2018-05-19T10:38:30.428Z,32.93
2018-05-19T10:41:04.974Z,29.07
2018-05-19T10:43:39.717Z,30.30
2018-05-19T10:46:14.312Z,31.73
2018-05-19T10:48:49.005Z,30.63
2018-05-19T10:51:23.580Z,33.13
2018-05-19T10:53:58.190Z,27.80
2018-05-19T10:56:33.595Z,26.73
2018-05-19T10:59:08.151Z,27.80
2018-05-19T11:01:42.839Z,36.17
2018-05-19T11:04:17.485Z,28.90
2018-05-19T11:06:52.253Z,28.27
2018-05-19T11:09:26.905Z,28.63
2018-05-19T11:12:01.703Z,33.07
2018-05-19T11:14:36.324Z,27.77
2018-05-19T11:17:11.105Z,34.83
2018-05-19T11:19:46.220Z,35.00
2018-05-19T11:22:21.687Z,29.03
2018-05-19T11:24:56.427Z,31.07
2018-05-19T11:27:31.231Z,31.07
2018-05-19T11:30:05.926Z,30.57
2018-05-19T11:32:40.594Z,31.50
2018-05-19T11:35:15.157Z,32.40
2018-05-19T11:37:49.756Z,31.73
2018-05-19T11:40:24.591Z,25.40
2018-05-19T11:42:59.343Z,27.27
2018-05-19T11:45:33.965Z,33.73
2018-05-19T11:48:08.616Z,37.47
2018-05-19T11:50:44.096Z,32.30
2018-05-19T11:53:19.810Z,29.50
2018-05-19T11:55:54.651Z,31.43
2018-05-19T11:58:29.379Z,32.83
2018-05-19T12:01:04.027Z,31.53
2018-05-19T12:03:38.821Z,33.70
2018-05-19T12:06:13.798Z,28.57
2018-05-19T12:08:48.505Z,27.20
2018-05-19T12:11:23.072Z,38.67
2018-05-19T12:13:57.675Z,30.87
2018-05-19T12:16:32.352Z,27.63
2018-05-19T12:19:07.070Z,26.70
2018-05-19T12:21:42.618Z,27.97
2018-05-19T12:24:18.107Z,28.10
2018-05-19T12:26:53.127Z,31.13
2018-05-19T12:29:28.147Z,31.10
2018-05-19T12:32:02.824Z,32.20
2018-05-19T12:34:38.336Z,28.60
2018-05-19T12:37:13.790Z,26.47
2018-05-19T12:39:48.455Z,28.83
2018-05-19T12:42:23.771Z,33.70
2018-05-19T12:44:58.611Z,29.03
2018-05-19T12:47:33.310Z,30.53
2018-05-19T12:50:08.805Z,26.77
2018-05-19T12:52:43.325Z,27.73
2018-05-19T12:55:17.750Z,33.07
2018-05-19T12:57:52.475Z,29.57
2018-05-19T13:00:27.090Z,24.93
2018-05-19T13:03:01.767Z,27.77
2018-05-19T13:05:36.404Z,27.00
2018-05-19T13:08:11.055Z,30.23
2018-05-19T13:10:45.729Z,29.00
2018-05-19T13:13:20.308Z,32.37
2018-05-19T13:15:55.086Z,28.57
2018-05-19T13:18:29.919Z,30.63
2018-05-19T13:21:04.754Z,31.67
2018-05-19T13:23:39.647Z,29.23
2018-05-19T13:26:14.288Z,31.23
2018-05-19T13:28:49.120Z,29.67
2018-05-19T13:31:23.708Z,28.97
2018-05-19T13:33:58.396Z,28.30
2018-05-19T13:36:33.045Z,28.93
2018-05-19T13:39:13.545Z,34.77
2018-05-19T13:41:48.149Z,29.27
2018-05-19T13:44:22.829Z,30.30
2018-05-19T13:46:58.333Z,34.20
2018-05-19T13:49:33.267Z,28.07
2018-05-19T13:52:08.160Z,29.67
2018-05-19T13:54:43.083Z,27.70
2018-05-19T13:57:17.674Z,28.90
2018-05-19T13:59:53.128Z,32.60
2018-05-19T14:02:27.993Z,27.13
2018-05-19T14:05:02.600Z,27.23
2018-05-19T14:07:37.113Z,34.70
2018-05-19T14:10:11.764Z,30.07
2018-05-19T14:12:46.445Z,26.30
2018-05-19T14:15:21.019Z,30.30
2018-05-19T14:17:55.733Z,31.07
2018-05-19T14:20:30.350Z,28.83
2018-05-19T14:23:05.813Z,24.13
2018-05-19T14:25:40.548Z,29.03
2018-05-19T14:28:15.273Z,36.37
2018-05-19T14:30:50.882Z,28.50
2018-05-19T14:33:26.347Z,31.03
2018-05-19T14:36:01.139Z,30.90
2018-05-19T14:38:36.077Z,35.13
2018-05-19T14:41:10.599Z,36.00
2018-05-19T14:43:45.264Z,34.60
2018-05-19T14:46:20.646Z,29.60
2018-05-19T14:48:55.360Z,30.00
2018-05-19T14:51:29.970Z,31.50
2018-05-19T14:54:04.649Z,30.30
2018-05-19T14:56:39.403Z,33.60
2018-05-19T14:59:14.204Z,32.10
2018-05-19T15:01:53.008Z,33.17
2018-05-19T15:04:28.539Z,28.00
2018-05-19T15:07:03.448Z,28.40
2018-05-19T15:09:38.019Z,25.13
2018-05-19T15:12:12.721Z,29.30
2018-05-19T15:14:47.437Z,29.33
2018-05-19T15:17:22.051Z,33.67
2018-05-19T15:19:56.715Z,35.03
2018-05-19T15:22:31.251Z,29.80
2018-05-19T15:25:05.944Z,31.53
2018-05-19T15:27:40.703Z,31.33
2018-05-19T15:30:15.438Z,24.87
2018-05-19T15:32:50.363Z,27.10
2018-05-19T15:35:25.054Z,26.70
2018-05-19T15:37:59.920Z,28.87
2018-05-19T15:40:34.794Z,35.17
2018-05-19T15:43:09.629Z,30.53
2018-05-19T15:45:44.357Z,34.83
2018-05-19T15:48:19.153Z,26.10
2018-05-19T15:50:54.039Z,24.67
2018-05-19T15:53:29.562Z,26.20
2018-05-19T15:56:04.301Z,27.50
2018-05-19T15:58:39.023Z,26.60
2018-05-19T16:01:13.712Z,25.67
2018-05-19T16:03:48.402Z,30.30
2018-05-19T16:06:23.920Z,29.20
2018-05-19T16:08:58.575Z,27.87
2018-05-19T16:11:33.420Z,27.53
2018-05-19T16:14:08.213Z,30.97
2018-05-19T16:16:43.277Z,28.13
2018-05-19T16:19:19.659Z,26.57
2018-05-19T16:21:54.358Z,26.70
2018-05-19T16:24:29.007Z,22.53
2018-05-19T16:27:03.853Z,24.80
2018-05-19T16:29:38.981Z,23.73
2018-05-19T16:32:13.672Z,26.10
2018-05-19T16:34:49.996Z,24.40
2018-05-19T16:37:24.744Z,28.17
2018-05-19T16:39:59.432Z,27.43
2018-05-19T16:42:34.113Z,22.93
2018-05-19T16:45:08.683Z,22.93
2018-05-19T16:47:43.496Z,23.53
2018-05-19T16:50:18.069Z,23.63
2018-05-19T16:52:53.406Z,23.30
2018-05-19T16:55:28.733Z,23.60
2018-05-19T16:58:04.199Z,26.43
2018-05-19T17:00:38.887Z,30.77
2018-05-19T17:03:13.444Z,28.70
2018-05-19T17:05:48.087Z,22.87
2018-05-19T17:08:22.618Z,22.80
2018-05-19T17:10:57.402Z,24.57
2018-05-19T17:13:32.170Z,24.87
2018-05-19T17:16:06.884Z,21.17
2018-05-19T17:18:41.474Z,24.77
2018-05-19T17:21:16.213Z,23.17
2018-05-19T17:23:51.072Z,20.97
2018-05-19T17:26:25.883Z,24.53
2018-05-19T17:29:01.513Z,25.00
2018-05-19T17:31:36.045Z,23.23
2018-05-19T17:34:10.735Z,21.00
2018-05-19T17:36:45.532Z,23.17
2018-05-19T17:39:20.495Z,17.83
2018-05-19T17:41:55.346Z,21.40
2018-05-19T17:44:30.371Z,20.33
2018-05-19T17:47:05.823Z,19.60
2018-05-19T17:49:40.530Z,18.27
2018-05-19T17:52:15.475Z,22.73
2018-05-19T17:54:50.123Z,22.17
2018-05-19T17:57:25.656Z,21.17
2018-05-19T18:00:00.389Z,21.33
2018-05-19T18:02:34.945Z,19.97
2018-05-19T18:05:09.801Z,20.70
2018-05-19T18:07:44.735Z,19.97
2018-05-19T18:10:19.492Z,19.40
2018-05-19T18:12:54.301Z,17.37
2018-05-19T18:15:29.495Z,19.27
2018-05-19T18:18:04.100Z,18.50
2018-05-19T18:20:38.890Z,16.60
2018-05-19T18:23:13.461Z,19.43
2018-05-19T18:25:48.058Z,19.33
2018-05-19T18:28:22.854Z,16.70
2018-05-19T18:30:57.107Z,15.70
2018-05-19T18:33:31.978Z,17.13
2018-05-19T18:36:06.581Z,16.40
2018-05-19T18:38:41.259Z,16.07
2018-05-19T18:41:15.977Z,21.90
2018-05-19T18:43:50.527Z,17.83
2018-05-19T18:46:25.112Z,19.23
2018-05-19T18:48:59.835Z,18.23
2018-05-19T18:51:34.475Z,17.13
2018-05-19T18:54:09.424Z,22.57
2018-05-19T18:56:44.276Z,19.90
2018-05-19T18:59:18.867Z,19.60
2018-05-19T19:01:53.733Z,22.50
2018-05-19T19:04:28.531Z,17.53
2018-05-19T19:07:03.414Z,16.10
2018-05-19T19:09:38.819Z,19.90
2018-05-19T19:12:13.967Z,19.87
2018-05-19T19:14:48.845Z,18.63
2018-05-19T19:17:23.619Z,19.63
2018-05-19T19:19:59.193Z,18.00
2018-05-19T19:22:34.023Z,22.33
2018-05-19T19:25:09.360Z,18.60
2018-05-19T19:27:44.122Z,16.40
2018-05-19T19:30:18.840Z,15.80
2018-05-19T19:32:53.427Z,14.63
2018-05-19T19:35:29.017Z,12.77
2018-05-19T19:38:03.624Z,14.50
2018-05-19T19:40:38.258Z,12.80
2018-05-19T19:43:12.868Z,18.40
2018-05-19T19:45:47.515Z,13.80
2018-05-19T19:48:22.255Z,12.70
2018-05-19T19:50:57.010Z,15.30
2018-05-19T19:53:31.757Z,17.73
2018-05-19T19:56:06.441Z,13.10
2018-05-19T19:58:41.184Z,13.40
2018-05-19T20:01:15.885Z,16.50
2018-05-19T20:03:50.772Z,18.40
2018-05-19T20:06:25.584Z,13.40
2018-05-19T20:09:00.419Z,16.60
2018-05-19T20:11:35.092Z,16.73
2018-05-19T20:14:09.827Z,15.77
2018-05-19T20:16:44.743Z,14.80
2018-05-19T20:19:19.472Z,15.53
2018-05-19T20:21:53.993Z,18.37
2018-05-19T20:24:28.605Z,12.90
2018-05-19T20:27:04.123Z,14.00
2018-05-19T20:29:38.836Z,14.57
2018-05-19T20:32:13.393Z,18.10
2018-05-19T20:34:48.049Z,17.67
2018-05-19T20:37:22.596Z,16.27
2018-05-19T20:39:57.169Z,16.20
2018-05-19T20:42:32.667Z,15.40
2018-05-19T20:45:08.427Z,14.60
2018-05-19T20:47:43.251Z,15.33
2018-05-19T20:50:18.164Z,18.90
2018-05-19T20:52:53.567Z,16.77
2018-05-19T20:55:28.536Z,15.43
2018-05-19T20:58:03.932Z,16.93
2018-05-19T21:00:38.570Z,19.03
2018-05-19T21:03:13.474Z,19.03
2018-05-19T21:05:48.304Z,16.47
2018-05-19T21:08:23.025Z,17.30
2018-05-19T21:10:58.901Z,18.13
2018-05-19T21:13:33.621Z,17.80
2018-05-19T21:16:08.397Z,19.20
2018-05-19T21:18:43.576Z,15.30
2018-05-19T21:21:18.414Z,22.47
2018-05-19T21:23:53.784Z,20.77
2018-05-19T21:26:28.474Z,20.07
2018-05-19T21:29:03.176Z,16.10
2018-05-19T21:31:38.633Z,16.33
2018-05-19T21:34:14.011Z,18.57
2018-05-19T21:36:48.795Z,16.30
2018-05-19T21:39:23.447Z,18.70
2018-05-19T21:41:58.104Z,17.63
2018-05-19T21:44:33.025Z,23.20
2018-05-19T21:47:07.789Z,21.23
2018-05-19T21:49:42.975Z,23.43
2018-05-19T21:52:17.521Z,21.83
2018-05-19T21:54:52.151Z,22.53
2018-05-19T21:57:26.952Z,26.20
2018-05-19T22:00:02.523Z,22.87
2018-05-19T22:02:37.591Z,24.63
2018-05-19T22:05:12.322Z,21.13
2018-05-19T22:07:47.116Z,22.93
2018-05-19T22:10:21.938Z,21.00
2018-05-19T22:12:56.851Z,17.70
2018-05-19T22:15:31.867Z,21.40
2018-05-19T22:18:06.551Z,19.83
2018-05-19T22:20:41.275Z,20.77
2018-05-19T22:23:16.064Z,23.90
2018-05-19T22:25:50.738Z,18.70
2018-05-19T22:28:25.397Z,22.57
2018-05-19T22:31:00.025Z,25.10
2018-05-19T22:33:34.643Z,19.50
2018-05-19T22:36:09.346Z,26.63
2018-05-19T22:38:43.958Z,27.17
2018-05-19T22:41:18.555Z,23.63
2018-05-19T22:43:53.245Z,23.03
2018-05-19T22:46:28.145Z,20.37
2018-05-19T22:49:02.976Z,25.20
2018-05-19T22:51:37.932Z,24.80
2018-05-19T22:54:12.788Z,27.97
2018-05-19T22:56:47.838Z,25.60
2018-05-19T22:59:23.216Z,27.73
2018-05-19T23:01:57.826Z,28.37
2018-05-19T23:04:32.525Z,27.13
2018-05-19T23:07:07.243Z,24.50
2018-05-19T23:09:42.067Z,24.73
2018-05-19T23:12:17.382Z,26.57
2018-05-19T23:14:52.049Z,33.10
2018-05-19T23:17:26.704Z,38.20
2018-05-19T23:20:02.103Z,28.97
2018-05-19T23:22:44.953Z,29.63
2018-05-19T23:25:19.721Z,29.20
2018-05-19T23:27:55.175Z,27.33
2018-05-19T23:30:29.833Z,29.87
2018-05-19T23:33:04.460Z,34.17
2018-05-19T23:35:39.243Z,30.83
2018-05-19T23:38:14.005Z,30.97
2018-05-19T23:40:48.881Z,31.60
2018-05-19T23:43:24.164Z,27.10
2018-05-19T23:45:58.823Z,37.87
2018-05-19T23:48:34.415Z,27.30
2018-05-19T23:51:09.091Z,34.23
2018-05-19T23:53:44.286Z,34.13
2018-05-19T23:56:18.875Z,32.90
2018-05-19T23:58:54.268Z,26.77
